createdAt,value
2022-12-11T00:04:55.590Z,74.94
2022-12-11T00:07:25.631Z,74.91
2022-12-11T00:16:58.632Z,75.71
2022-12-11T00:19:25.411Z,76.71
2022-12-11T00:21:52.153Z,76.58
2022-12-11T00:25:17.160Z,76.07
2022-12-11T00:27:56.257Z,76.18
2022-12-11T00:30:24.438Z,75.57
2022-12-11T00:32:54.378Z,74.90
2022-12-11T00:35:22.333Z,75.17
2022-12-11T00:37:49.073Z,74.93
2022-12-11T00:40:15.832Z,74.25
2022-12-11T00:42:42.649Z,74.11
2022-12-11T00:45:12.796Z,74.25
2022-12-11T00:47:39.695Z,74.43
2022-12-11T00:50:07.117Z,74.57
2022-12-11T00:52:35.077Z,75.35
2022-12-11T00:55:08.728Z,73.95
2022-12-11T00:58:04.594Z,74.66
2022-12-11T01:00:31.630Z,74.88
2022-12-11T01:02:58.701Z,74.58
2022-12-11T01:06:02.705Z,73.81
2022-12-11T01:08:32.732Z,74.67
2022-12-11T01:11:12.048Z,74.31
2022-12-11T01:13:39.932Z,73.63
2022-12-11T01:16:12.842Z,73.35
2022-12-11T01:18:39.850Z,74.63
2022-12-11T01:21:13.774Z,73.51
2022-12-11T01:23:40.893Z,73.16
2022-12-11T01:26:25.588Z,73.11
2022-12-11T01:28:55.517Z,74.07
2022-12-11T01:31:22.504Z,73.51
2022-12-11T01:33:49.304Z,73.08
2022-12-11T01:36:56.948Z,73.00
2022-12-11T01:39:23.893Z,73.27
2022-12-11T01:42:01.850Z,73.44
2022-12-11T01:44:40.830Z,73.20
2022-12-11T01:47:41.953Z,73.36
2022-12-11T01:50:08.798Z,73.45
2022-12-11T01:52:35.757Z,73.71
2022-12-11T01:55:02.736Z,73.53
2022-12-11T01:57:30.054Z,73.41
2022-12-11T01:59:59.096Z,73.07
2022-12-11T02:06:03.036Z,73.26
2022-12-11T02:08:30.199Z,74.06
2022-12-11T02:17:32.693Z,73.25
2022-12-11T02:24:19.912Z,72.57
2022-12-11T02:27:27.233Z,73.28
2022-12-11T02:30:02.833Z,73.14
2022-12-11T02:32:35.678Z,72.36
2022-12-11T02:41:59.247Z,73.71
2022-12-11T02:44:30.893Z,73.68
2022-12-11T02:46:58.887Z,72.86
2022-12-11T02:49:28.028Z,72.62
2022-12-11T02:52:41.456Z,72.25
2022-12-11T02:55:09.490Z,72.67
2022-12-11T02:57:43.875Z,72.62
2022-12-11T03:00:12.064Z,73.67
2022-12-11T03:06:23.688Z,72.51
2022-12-11T03:08:55.071Z,72.88
2022-12-11T03:11:30.832Z,72.62
2022-12-11T03:17:12.067Z,71.86
2022-12-11T03:27:18.758Z,73.44
2022-12-11T03:30:07.876Z,72.87
2022-12-11T03:33:13.652Z,72.87
2022-12-11T03:35:49.251Z,72.43
2022-12-11T03:38:24.017Z,71.36
2022-12-11T03:40:55.119Z,71.72
2022-12-11T03:43:23.170Z,72.31
2022-12-11T03:45:52.352Z,72.99
2022-12-11T03:48:24.002Z,73.12
2022-12-11T03:54:29.587Z,73.45
2022-12-11T03:56:59.436Z,74.57
2022-12-11T03:59:26.392Z,75.08
2022-12-11T04:01:53.472Z,75.27
2022-12-11T04:04:20.618Z,76.67
2022-12-11T04:10:16.090Z,79.11
2022-12-11T04:12:46.632Z,78.51
2022-12-11T04:15:15.838Z,78.32
2022-12-11T04:18:01.321Z,77.31
2022-12-11T04:20:50.139Z,76.81
2022-12-11T04:26:29.530Z,76.79
2022-12-11T04:28:56.441Z,76.60
2022-12-11T04:31:23.309Z,76.01
2022-12-11T04:33:50.592Z,76.13
2022-12-11T04:36:17.834Z,75.78
2022-12-11T04:45:40.985Z,77.37
2022-12-11T04:48:07.737Z,77.06
2022-12-11T04:54:11.744Z,77.19
2022-12-11T05:00:11.560Z,77.00
2022-12-11T05:02:44.041Z,77.16
2022-12-11T05:05:14.631Z,77.49
2022-12-11T05:07:44.835Z,77.60
2022-12-11T05:10:17.888Z,78.20
2022-12-11T05:12:44.704Z,76.38
2022-12-11T05:18:07.147Z,77.62
2022-12-11T05:20:36.708Z,78.40
2022-12-11T05:23:03.702Z,77.95
2022-12-11T05:25:30.406Z,78.08
2022-12-11T05:28:09.177Z,78.08
2022-12-11T05:30:39.075Z,77.26
2022-12-11T05:33:08.815Z,77.11
2022-12-11T05:35:35.634Z,78.41
2022-12-11T05:38:02.635Z,78.33
2022-12-11T05:44:44.535Z,77.53
2022-12-11T05:47:11.380Z,75.98
2022-12-11T05:50:03.753Z,77.21
2022-12-11T05:52:34.914Z,77.80
2022-12-11T05:58:39.968Z,79.27
2022-12-11T06:04:41.048Z,76.66
2022-12-11T06:07:07.950Z,77.56
2022-12-11T06:13:03.507Z,79.34
2022-12-11T06:15:30.555Z,79.64
2022-12-11T06:20:50.276Z,80.64
2022-12-11T06:23:20.186Z,80.90
2022-12-11T06:26:30.787Z,80.05
2022-12-11T06:32:48.456Z,79.70
2022-12-11T06:35:15.330Z,79.79
2022-12-11T06:37:42.079Z,77.90
2022-12-11T06:40:46.139Z,78.17
2022-12-11T06:43:13.103Z,77.57
2022-12-11T06:45:43.011Z,76.96
2022-12-11T06:55:03.342Z,76.41
2022-12-11T06:57:30.063Z,76.25
2022-12-11T06:59:56.864Z,76.90
2022-12-11T07:02:27.273Z,75.48
2022-12-11T07:05:17.124Z,75.32
2022-12-11T07:11:14.471Z,75.86
2022-12-11T07:17:01.560Z,74.31
2022-12-11T07:19:30.143Z,74.61
2022-12-11T07:21:59.674Z,75.88
2022-12-11T07:25:17.306Z,75.82
2022-12-11T07:34:52.094Z,77.26
2022-12-11T07:37:18.956Z,75.45
2022-12-11T07:46:51.909Z,77.77
2022-12-11T07:49:18.933Z,77.41
2022-12-11T07:51:45.849Z,76.83
2022-12-11T07:54:16.653Z,76.89
2022-12-11T07:56:53.184Z,77.68
2022-12-11T07:59:21.301Z,78.07
2022-12-11T08:01:50.788Z,79.39
2022-12-11T08:04:17.554Z,78.22
2022-12-11T08:07:31.467Z,78.39
2022-12-11T08:09:58.260Z,78.46
2022-12-11T08:12:25.008Z,78.08
2022-12-11T08:14:51.769Z,77.81
2022-12-11T08:17:18.500Z,77.85
2022-12-11T08:19:45.321Z,77.87
2022-12-11T08:22:14.169Z,78.01
2022-12-11T08:24:42.925Z,78.71
2022-12-11T08:27:09.708Z,78.14
2022-12-11T08:29:40.105Z,78.83
2022-12-11T08:32:12.124Z,78.59
2022-12-11T08:34:40.533Z,77.04
2022-12-11T08:37:09.329Z,76.74
2022-12-11T08:39:40.211Z,75.33
2022-12-11T08:42:07.916Z,74.59
2022-12-11T08:44:34.693Z,76.85
2022-12-11T08:47:01.383Z,77.55
2022-12-11T08:49:34.041Z,76.95
2022-12-11T08:52:03.173Z,77.86
2022-12-11T08:54:32.806Z,75.45
2022-12-11T08:56:59.813Z,76.21
2022-12-11T08:59:26.758Z,77.41
2022-12-11T09:01:55.739Z,77.08
2022-12-11T09:04:26.841Z,78.21
2022-12-11T09:06:58.675Z,77.72
2022-12-11T09:09:25.563Z,78.16
2022-12-11T09:11:53.190Z,79.02
2022-12-11T09:14:20.201Z,78.91
2022-12-11T09:16:47.098Z,77.70
2022-12-11T09:19:15.408Z,77.39
2022-12-11T09:21:43.342Z,78.63
2022-12-11T09:24:11.410Z,77.83
2022-12-11T09:26:42.066Z,78.33
2022-12-11T09:29:17.771Z,77.61
2022-12-11T09:31:45.519Z,78.27
2022-12-11T09:34:13.456Z,78.76
2022-12-11T09:36:44.442Z,78.99
2022-12-11T09:39:15.246Z,78.63
2022-12-11T09:42:18.311Z,78.59
2022-12-11T09:44:55.174Z,77.50
2022-12-11T09:47:56.176Z,78.16
2022-12-11T09:50:29.552Z,78.04
2022-12-11T09:53:34.291Z,76.60
2022-12-11T09:56:27.054Z,75.99
2022-12-11T09:59:11.939Z,76.71
2022-12-11T10:01:48.588Z,78.07
2022-12-11T10:04:27.238Z,75.23
2022-12-11T10:07:16.470Z,74.16
2022-12-11T10:09:58.373Z,75.11
2022-12-11T10:12:52.303Z,75.01
2022-12-11T10:15:46.524Z,76.17
2022-12-11T10:18:18.218Z,76.36
2022-12-11T10:20:54.173Z,76.54
2022-12-11T10:23:30.190Z,74.95
2022-12-11T10:26:22.142Z,73.33
2022-12-11T10:29:07.073Z,74.53
2022-12-11T10:31:49.157Z,75.56
2022-12-11T10:34:41.527Z,75.43
2022-12-11T10:37:08.398Z,74.55
2022-12-11T10:39:35.269Z,74.80
2022-12-11T10:42:16.579Z,75.42
2022-12-11T10:44:57.858Z,76.44
2022-12-11T10:47:24.683Z,76.28
2022-12-11T10:50:02.642Z,75.29
2022-12-11T10:52:41.252Z,76.43
2022-12-11T10:55:27.617Z,76.35
2022-12-11T10:58:01.857Z,75.64
2022-12-11T11:00:36.166Z,75.71
2022-12-11T11:03:05.347Z,76.75
2022-12-11T11:05:36.503Z,76.61
2022-12-11T11:08:25.643Z,74.07
2022-12-11T11:10:55.056Z,74.21
2022-12-11T11:13:24.626Z,75.46
2022-12-11T11:16:04.341Z,74.20
2022-12-11T11:18:32.199Z,74.50
2022-12-11T11:21:00.803Z,75.14
2022-12-11T11:23:28.609Z,75.76
2022-12-11T11:25:58.964Z,75.29
2022-12-11T11:28:33.664Z,76.37
2022-12-11T11:31:18.930Z,76.72
2022-12-11T11:34:09.699Z,77.65
2022-12-11T11:36:43.382Z,77.28
2022-12-11T11:39:28.273Z,77.83
2022-12-11T11:42:01.195Z,77.99
2022-12-11T11:44:42.727Z,78.32
2022-12-11T11:47:32.581Z,77.58
2022-12-11T11:50:21.868Z,77.40
2022-12-11T11:52:54.929Z,77.82
2022-12-11T11:55:37.266Z,77.26
2022-12-11T11:58:36.645Z,77.69
2022-12-11T12:01:03.373Z,78.37
2022-12-11T12:03:30.618Z,77.86
2022-12-11T12:06:14.872Z,77.85
2022-12-11T12:09:22.594Z,78.57
2022-12-11T12:12:00.510Z,79.24
2022-12-11T12:14:52.425Z,79.56
2022-12-11T12:17:55.983Z,76.62
2022-12-11T12:20:34.045Z,74.20
2022-12-11T12:23:24.952Z,75.15
2022-12-11T12:26:10.046Z,74.72
2022-12-11T12:28:53.077Z,74.05
2022-12-11T12:31:41.357Z,75.78
2022-12-11T12:34:29.673Z,76.05
2022-12-11T12:37:02.032Z,76.28
2022-12-11T12:40:03.893Z,75.45
2022-12-11T12:42:56.727Z,77.09
2022-12-11T12:45:30.740Z,74.49
2022-12-11T12:48:03.630Z,74.92
2022-12-11T12:50:44.514Z,74.13
2022-12-11T12:53:18.617Z,73.41
2022-12-11T12:55:46.671Z,72.33
2022-12-11T12:58:40.608Z,71.01
2022-12-11T13:01:13.452Z,72.13
2022-12-11T13:04:20.873Z,73.26
2022-12-11T13:06:57.758Z,73.82
2022-12-11T13:09:38.599Z,72.63
2022-12-11T13:12:19.521Z,73.25
2022-12-11T13:15:00.372Z,74.82
2022-12-11T13:17:39.347Z,73.07
2022-12-11T13:20:22.199Z,72.94
2022-12-11T13:22:57.946Z,74.53
2022-12-11T13:25:30.972Z,74.32
2022-12-11T13:28:28.769Z,74.02
2022-12-11T13:31:03.312Z,73.03
2022-12-11T13:33:30.872Z,73.81
2022-12-11T13:36:27.151Z,74.91
2022-12-11T13:39:02.040Z,76.17
2022-12-11T13:41:32.286Z,76.35
2022-12-11T13:44:04.003Z,77.42
2022-12-11T13:46:38.825Z,77.70
2022-12-11T13:49:08.920Z,76.59
2022-12-11T13:51:37.332Z,77.20
2022-12-11T13:54:16.697Z,76.79
2022-12-11T13:57:15.158Z,76.73
2022-12-11T13:59:55.971Z,76.48
2022-12-11T14:02:34.259Z,76.62
2022-12-11T14:05:06.583Z,77.67
2022-12-11T14:07:37.320Z,77.84
2022-12-11T14:10:30.345Z,78.44
2022-12-11T14:13:02.843Z,78.82
2022-12-11T14:15:35.526Z,78.32
2022-12-11T14:18:15.074Z,77.67
2022-12-11T14:20:46.756Z,77.78
2022-12-11T14:23:23.736Z,78.01
2022-12-11T14:26:19.532Z,79.74
2022-12-11T14:28:54.768Z,80.15
2022-12-11T14:31:44.634Z,81.57
2022-12-11T14:34:21.225Z,81.03
2022-12-11T14:36:49.736Z,81.26
2022-12-11T14:39:34.600Z,80.76
2022-12-11T14:42:07.693Z,81.26
2022-12-11T14:44:58.104Z,81.49
2022-12-11T14:47:31.255Z,81.13
2022-12-11T14:50:07.167Z,81.10
2022-12-11T14:52:47.395Z,78.55
2022-12-11T14:55:27.850Z,79.13
2022-12-11T14:58:03.281Z,79.16
2022-12-11T15:00:33.409Z,80.90
2022-12-11T15:03:29.452Z,80.55
2022-12-11T15:05:58.078Z,80.10
2022-12-11T15:08:29.458Z,80.98
2022-12-11T15:11:21.720Z,80.22
2022-12-11T15:13:51.400Z,81.04
2022-12-11T15:16:27.020Z,80.98
2022-12-11T15:18:59.049Z,81.65
2022-12-11T15:21:34.523Z,82.25
2022-12-11T15:24:07.216Z,81.81
2022-12-11T15:26:41.595Z,81.65
2022-12-11T15:29:42.673Z,81.62
2022-12-11T15:32:09.443Z,80.70
2022-12-11T15:34:50.192Z,80.47
2022-12-11T15:37:23.707Z,80.55
2022-12-11T15:39:51.720Z,80.78
2022-12-11T15:42:40.725Z,81.08
2022-12-11T15:45:20.110Z,82.70
2022-12-11T15:47:48.882Z,82.92
2022-12-11T15:50:22.079Z,83.18
2022-12-11T15:52:54.860Z,83.16
2022-12-11T15:55:23.513Z,81.27
2022-12-11T15:58:02.467Z,81.01
2022-12-11T16:00:34.799Z,80.61
2022-12-11T16:03:01.528Z,80.98
2022-12-11T16:05:35.678Z,80.62
2022-12-11T16:08:02.478Z,80.95
2022-12-11T16:10:32.518Z,81.65
2022-12-11T16:13:04.046Z,80.72
2022-12-11T16:15:31.235Z,81.62
2022-12-11T16:18:09.886Z,81.04
2022-12-11T16:20:41.210Z,81.27
2022-12-11T16:23:18.118Z,79.04
2022-12-11T16:25:46.327Z,79.46
2022-12-11T16:28:16.390Z,78.02
2022-12-11T16:30:46.161Z,78.13
2022-12-11T16:33:13.807Z,79.11
2022-12-11T16:35:42.194Z,78.71
2022-12-11T16:38:10.265Z,78.87
2022-12-11T16:40:39.673Z,80.23
2022-12-11T16:43:14.847Z,80.31
2022-12-11T16:45:47.862Z,80.24
2022-12-11T16:48:14.727Z,81.83
2022-12-11T16:50:56.183Z,80.83
2022-12-11T16:53:28.399Z,80.22
2022-12-11T16:55:55.300Z,80.21
2022-12-11T16:58:24.622Z,80.41
2022-12-11T17:03:26.811Z,80.92
2022-12-11T17:05:53.770Z,80.23
2022-12-11T17:08:23.106Z,80.26
2022-12-11T17:10:50.205Z,79.09
2022-12-11T17:13:17.403Z,79.00
2022-12-11T17:15:46.276Z,79.34
2022-12-11T17:18:13.912Z,80.34
2022-12-11T17:20:42.403Z,80.24
2022-12-11T17:23:10.864Z,80.47
2022-12-11T17:25:41.936Z,81.08
2022-12-11T17:28:14.019Z,80.60
2022-12-11T17:30:44.130Z,80.09
2022-12-11T17:33:12.636Z,80.49
2022-12-11T17:35:39.691Z,81.21
2022-12-11T17:38:06.637Z,81.17
2022-12-11T17:40:33.687Z,81.51
2022-12-11T17:43:00.788Z,81.25
2022-12-11T17:45:28.030Z,81.56
2022-12-11T17:47:54.807Z,81.20
2022-12-11T17:50:21.777Z,80.48
2022-12-11T17:52:49.111Z,81.35
2022-12-11T17:55:16.435Z,79.64
2022-12-11T17:57:43.815Z,79.42
2022-12-11T18:00:11.238Z,79.58
2022-12-11T18:02:38.371Z,79.39
2022-12-11T18:05:05.607Z,79.27
2022-12-11T18:07:36.547Z,79.03
2022-12-11T18:10:10.146Z,80.37
2022-12-11T18:12:37.779Z,81.32
2022-12-11T18:15:11.116Z,81.49
2022-12-11T18:17:44.700Z,81.53
2022-12-11T18:20:20.493Z,80.71
2022-12-11T18:22:55.667Z,80.00
2022-12-11T18:25:26.145Z,80.28
2022-12-11T18:27:57.003Z,81.52
2022-12-11T18:30:24.884Z,80.04
2022-12-11T18:32:55.407Z,79.68
2022-12-11T18:35:25.942Z,80.15
2022-12-11T18:38:00.307Z,79.83
2022-12-11T18:40:30.201Z,80.65
2022-12-11T18:42:58.924Z,80.91
2022-12-11T18:45:26.318Z,80.99
2022-12-11T18:47:59.353Z,80.90
2022-12-11T18:50:27.194Z,80.92
2022-12-11T18:53:00.485Z,80.79
2022-12-11T18:55:27.581Z,81.37
2022-12-11T18:57:57.410Z,81.26
2022-12-11T19:00:24.806Z,81.16
2022-12-11T19:02:54.043Z,81.33
2022-12-11T19:05:20.848Z,80.99
2022-12-11T19:07:47.788Z,80.81
2022-12-11T19:10:17.484Z,80.75
2022-12-11T19:12:44.352Z,80.83
2022-12-11T19:15:15.871Z,80.17
2022-12-11T19:17:48.089Z,80.52
2022-12-11T19:20:48.556Z,80.14
2022-12-11T19:23:07.944Z,80.14
2022-12-11T19:25:34.937Z,80.24
2022-12-11T19:28:02.088Z,79.95
2022-12-11T19:30:29.011Z,80.64
2022-12-11T19:33:01.424Z,81.19
2022-12-11T19:35:31.229Z,81.15
2022-12-11T19:38:02.385Z,81.45
2022-12-11T19:40:34.135Z,81.35
2022-12-11T19:43:07.224Z,80.99
2022-12-11T19:45:41.837Z,80.84
2022-12-11T19:48:11.553Z,81.64
2022-12-11T19:50:40.132Z,81.03
2022-12-11T19:53:09.377Z,80.95
2022-12-11T19:55:45.243Z,81.12
2022-12-11T19:58:13.445Z,80.19
2022-12-11T20:00:40.787Z,80.55
2022-12-11T20:03:10.985Z,80.96
2022-12-11T20:05:38.175Z,81.32
2022-12-11T20:08:42.873Z,80.95
2022-12-11T20:11:10.568Z,80.95
2022-12-11T20:13:41.409Z,81.71
2022-12-11T20:16:12.306Z,82.00
2022-12-11T20:18:40.580Z,82.24
2022-12-11T20:21:12.004Z,82.07
2022-12-11T20:23:45.256Z,82.06
2022-12-11T20:26:18.160Z,81.83
2022-12-11T20:28:53.507Z,81.68
2022-12-11T20:31:27.866Z,81.96
2022-12-11T20:34:01.801Z,81.96
2022-12-11T20:36:28.953Z,81.60
2022-12-11T20:38:59.752Z,81.64
2022-12-11T20:41:33.333Z,82.88
2022-12-11T20:44:02.016Z,83.38
2022-12-11T20:46:30.308Z,82.97
2022-12-11T20:49:01.710Z,82.96
2022-12-11T20:51:29.658Z,82.59
2022-12-11T20:53:59.815Z,83.39
2022-12-11T20:56:29.353Z,83.95
2022-12-11T20:59:00.007Z,83.87
2022-12-11T21:01:39.528Z,84.15
2022-12-11T21:04:06.458Z,83.69
2022-12-11T21:06:36.719Z,83.25
2022-12-11T21:09:13.642Z,83.13
2022-12-11T21:11:41.129Z,82.68
2022-12-11T21:14:09.480Z,82.55
2022-12-11T21:16:40.628Z,82.93
2022-12-11T21:19:10.215Z,82.92
2022-12-11T21:21:40.728Z,83.35
2022-12-11T21:24:20.226Z,82.63
2022-12-11T21:26:48.388Z,82.78
2022-12-11T21:29:18.406Z,82.89
2022-12-11T21:31:45.297Z,82.73
2022-12-11T21:34:14.205Z,82.78
2022-12-11T21:36:56.887Z,82.99
2022-12-11T21:39:28.129Z,82.43
2022-12-11T21:41:55.372Z,82.87
2022-12-11T21:47:15.263Z,83.51
2022-12-11T21:49:42.198Z,82.97
2022-12-11T21:52:10.647Z,83.45
2022-12-11T21:54:37.615Z,84.23
2022-12-11T21:57:08.203Z,84.03
2022-12-11T21:59:35.171Z,84.75
2022-12-11T22:02:08.106Z,84.51
2022-12-11T22:04:34.982Z,84.24
2022-12-11T22:07:04.384Z,84.33
2022-12-11T22:09:31.144Z,83.72
2022-12-11T22:12:01.425Z,83.77
2022-12-11T22:14:31.478Z,84.27
2022-12-11T22:16:58.990Z,83.91
2022-12-11T22:19:32.517Z,84.13
2022-12-11T22:22:02.797Z,84.98
2022-12-11T22:24:29.602Z,85.09
2022-12-11T22:27:04.550Z,85.49
2022-12-11T22:29:35.829Z,85.38
2022-12-11T22:32:05.719Z,85.24
2022-12-11T22:34:32.591Z,85.72
2022-12-11T22:37:00.583Z,85.10
2022-12-11T22:39:27.610Z,84.35
2022-12-11T22:41:55.058Z,84.95
2022-12-11T22:44:22.239Z,84.99
2022-12-11T22:46:52.257Z,84.18
2022-12-11T22:49:20.927Z,84.89
2022-12-11T22:51:50.411Z,84.82
2022-12-11T22:54:21.086Z,84.59
2022-12-11T22:56:47.912Z,84.37
2022-12-11T22:59:19.797Z,83.89
2022-12-11T23:01:53.081Z,84.11
2022-12-11T23:04:22.793Z,83.96
2022-12-11T23:06:52.971Z,84.08
2022-12-11T23:09:21.187Z,84.53
2022-12-11T23:11:48.508Z,84.42
2022-12-11T23:14:23.389Z,83.64
2022-12-11T23:16:53.367Z,82.91
2022-12-11T23:19:29.344Z,83.21
2022-12-11T23:22:01.951Z,83.75
2022-12-11T23:24:28.798Z,83.63
2022-12-11T23:26:58.215Z,83.84
2022-12-11T23:29:34.701Z,84.28
2022-12-11T23:32:01.922Z,84.80
2022-12-11T23:34:28.837Z,84.57
2022-12-11T23:36:59.219Z,84.73
2022-12-11T23:39:26.510Z,85.15
2022-12-11T23:41:53.588Z,85.81
2022-12-11T23:44:20.520Z,85.73
2022-12-11T23:46:50.414Z,85.16
2022-12-11T23:49:21.143Z,84.71
2022-12-11T23:51:47.940Z,84.47
2022-12-11T23:54:14.723Z,84.47
2022-12-11T23:56:41.585Z,84.28
2022-12-11T23:59:12.591Z,84.98
